Current Weather

Hyakuri

Hyakuri, Japan (RJAH)

Report from: Sunday, February 25, 2024 5:00 AM JST
Current time: Sunday, February 25, 2024 5:34 AM JST

Nearby weather – Weather history – Daily summaries
Weather forecast

Temperature-0.0°C (32.0°F)
Wind chill-3.6°C (25.6°F)
Dew point-3.0°C (26.6°F)
Winds 6 kts (3.1 m/s, 6.9 mph) North (10°)
Visibility6.2 mi. (10 km)
Clouds Ceiling: Broken clouds 0 ft. (0 m)
Few clouds 5,000 ft. (1,524 m)
Broken clouds 18,000 ft. (5,486 m)
Altimeter30.24 in.Hg (1024 mB)
Relative humidity80 %
Density altitude-2,123 ft. (-647 m)
Flight conditions Low Instrument Meteorological Conditions
Raw dataRJAH 242000Z 01006KT 9999 FEW050 BKN180 BKN/// M00/M03 Q1024
An error has occurred. This application may no longer respond until reloaded. Reload 🗙